Time;durP1;ratioP1;P1;durP2;ratioP2;P2;SDS_P1;SDS_P2;PMS_P1;PMS_P2;Temp;Humidity;BMP_temperature;BMP_pressure;BME280_temperature;BME280_humidity;BME280_pressure;Samples;Min_cycle;Max_cycle;Signal;HPM_P1;HPM_P2
2022/08/28 00:00:38;;;;;;;;;6.25;6.25;;;;;21.66;41.95;101367.38;5020818;28;45177;-81
2022/08/28 00:03:09;;;;;;;;;5.25;5.25;;;;;21.63;42.14;101363.97;5019973;28;45649;-80
2022/08/28 00:05:34;;;;;;;;;5.50;4.00;;;;;21.59;41.92;101360.50;5020588;28;47686;-81
2022/08/28 00:08:01;;;;;;;;;4.75;4.75;;;;;21.58;42.48;101366.81;5021920;28;45306;-81
2022/08/28 00:10:29;;;;;;;;;5.25;5.25;;;;;21.56;42.34;101366.00;5021142;28;45290;-81
2022/08/28 00:12:56;;;;;;;;;7.00;5.75;;;;;21.52;42.24;101359.03;5021936;28;45395;-80
2022/08/28 00:15:26;;;;;;;;;6.75;4.75;;;;;21.50;42.56;101364.44;5021920;28;46293;-81
2022/08/28 00:17:52;;;;;;;;;7.00;7.00;;;;;21.46;42.93;101359.25;5020318;28;45418;-81
2022/08/28 00:20:19;;;;;;;;;4.00;3.75;;;;;21.43;42.69;101362.91;5022052;28;45776;-80
2022/08/28 00:22:46;;;;;;;;;5.75;5.75;;;;;21.41;43.41;101359.44;5020823;28;45494;-81
2022/08/28 00:25:14;;;;;;;;;5.25;5.25;;;;;21.41;43.13;101367.47;5020608;28;47865;-80
2022/08/28 00:27:51;;;;;;;;;5.25;4.00;;;;;21.41;43.28;101363.91;5022314;28;45407;-81
2022/08/28 00:30:28;;;;;;;;;4.75;4.00;;;;;21.38;43.27;101354.19;5021827;28;45495;-80
2022/08/28 00:32:56;;;;;;;;;7.50;5.25;;;;;21.35;43.23;101352.47;5021738;28;45378;-80
2022/08/28 00:35:22;;;;;;;;;3.25;3.25;;;;;21.38;43.56;101364.88;5019426;28;48412;-80
2022/08/28 00:37:49;;;;;;;;;7.00;5.75;;;;;21.38;43.63;101361.34;5021132;28;45352;-80
2022/08/28 00:40:17;;;;;;;;;6.00;4.50;;;;;21.37;43.33;101357.75;5020087;28;45300;-80
2022/08/28 00:42:47;;;;;;;;;5.25;4.50;;;;;21.37;43.88;101373.84;5020325;28;45440;-80
2022/08/28 00:45:17;;;;;;;;;6.00;5.00;;;;;21.35;43.80;101364.97;5021816;28;45652;-82
2022/08/28 00:47:42;;;;;;;;;7.25;6.25;;;;;21.35;43.59;101378.38;5021842;28;45387;-80
2022/08/28 00:50:11;;;;;;;;;5.50;5.50;;;;;21.28;44.02;101360.81;5016136;28;45382;-80
2022/08/28 00:52:40;;;;;;;;;4.50;4.50;;;;;21.29;44.19;101367.91;5001455;28;45233;-81
2022/08/28 00:55:16;;;;;;;;;7.75;7.75;;;;;21.29;44.22;101373.25;5012188;28;47356;-80
2022/08/28 00:57:51;;;;;;;;;4.25;4.00;;;;;21.25;44.44;101361.81;5019909;28;45967;-80
2022/08/28 01:00:30;;;;;;;;;6.25;6.25;;;;;21.21;44.25;101370.88;5021617;28;45508;-81
2022/08/28 01:02:57;;;;;;;;;7.75;6.75;;;;;21.22;44.43;101371.75;5019922;28;45595;-80
2022/08/28 01:05:23;;;;;;;;;5.00;3.00;;;;;21.19;44.69;101375.41;5021331;28;45639;-81
2022/08/28 01:07:49;;;;;;;;;5.00;5.00;;;;;21.09;44.49;101366.88;5019829;28;45372;-80
2022/08/28 01:10:19;;;;;;;;;4.00;4.00;;;;;21.07;44.73;101375.88;5019794;28;45460;-81
2022/08/28 01:12:46;;;;;;;;;6.00;5.25;;;;;21.05;44.95;101372.38;5019963;28;45371;-80
2022/08/28 01:15:16;;;;;;;;;6.50;5.50;;;;;20.98;45.22;101369.03;5019710;28;48064;-81
2022/08/28 01:17:46;;;;;;;;;4.00;4.00;;;;;20.94;45.51;101372.78;5019853;28;45848;-80
2022/08/28 01:20:17;;;;;;;;;4.50;4.50;;;;;20.94;45.54;101372.78;5007185;28;45307;-81
2022/08/28 01:23:08;;;;;;;;;7.00;6.00;;;;;20.92;45.68;101374.63;5008332;28;45338;-81
2022/08/28 01:25:36;;;;;;;;;4.75;4.75;;;;;20.91;45.27;101372.91;5020950;28;45623;-80
2022/08/28 01:28:07;;;;;;;;;5.00;5.00;;;;;20.90;45.93;101381.84;5019092;28;45532;-81
2022/08/28 01:30:33;;;;;;;;;6.00;6.00;;;;;20.88;45.76;101373.03;5020402;28;45313;-80
2022/08/28 01:32:58;;;;;;;;;4.00;4.00;;;;;20.88;46.03;101371.22;5018977;28;45537;-80
2022/08/28 01:35:28;;;;;;;;;5.25;4.75;;;;;20.85;46.18;101365.06;5019181;28;48129;-80
2022/08/28 01:37:55;;;;;;;;;4.75;4.75;;;;;20.84;45.95;101361.53;5019204;28;45548;-81
2022/08/28 01:40:34;;;;;;;;;6.25;5.00;;;;;20.78;46.16;101361.75;5020566;28;45418;-81
2022/08/28 01:43:20;;;;;;;;;5.50;5.50;;;;;20.74;46.33;101354.75;5020387;28;45237;-80
2022/08/28 01:45:51;;;;;;;;;7.00;6.00;;;;;20.75;46.59;101361.88;5020397;28;45608;-81
2022/08/28 01:48:18;;;;;;;;;4.50;4.50;;;;;20.72;46.61;101355.78;5018469;28;45258;-81
2022/08/28 01:50:44;;;;;;;;;3.75;3.75;;;;;20.70;46.53;101354.00;5019452;28;45450;-80
2022/08/28 01:53:14;;;;;;;;;6.25;4.75;;;;;20.65;46.32;101347.06;5020631;28;45406;-81
2022/08/28 01:55:41;;;;;;;;;8.50;5.00;;;;;20.66;46.80;101355.06;5018695;28;48039;-81
2022/08/28 01:58:08;;;;;;;;;5.50;5.50;;;;;20.60;46.76;101349.91;5019137;28;45402;-80
2022/08/28 02:00:34;;;;;;;;;5.00;5.00;;;;;20.55;47.05;101349.19;5020401;28;45232;-81
2022/08/28 02:03:00;;;;;;;;;4.75;4.75;;;;;20.53;47.34;101347.47;5020083;28;45545;-81
2022/08/28 02:05:29;;;;;;;;;4.75;4.75;;;;;20.50;47.16;101348.44;5020156;28;45207;-80
2022/08/28 02:07:56;;;;;;;;;4.25;4.25;;;;;20.48;47.47;101361.03;5020109;28;45332;-81
2022/08/28 02:10:23;;;;;;;;;5.00;5.00;;;;;20.49;47.23;101355.59;5018914;28;45429;-80
2022/08/28 02:12:49;;;;;;;;;4.00;4.00;;;;;20.48;47.49;101361.91;5018546;28;45240;-80
2022/08/28 02:15:14;;;;;;;;;5.00;5.00;;;;;20.44;47.32;101354.03;5020011;28;46262;-80
2022/08/28 02:17:40;;;;;;;;;5.50;3.25;;;;;20.45;47.27;101356.66;5019411;28;45243;-81
2022/08/28 02:20:06;;;;;;;;;4.50;4.50;;;;;20.44;47.52;101357.56;5020190;28;45334;-80
2022/08/28 02:22:32;;;;;;;;;6.25;6.00;;;;;20.44;47.42;101354.03;5019973;28;45462;-80
2022/08/28 02:24:58;;;;;;;;;4.00;3.75;;;;;20.43;47.47;101354.97;5018746;28;46706;-80
2022/08/28 02:27:23;;;;;;;;;5.25;5.25;;;;;20.44;47.42;101362.06;5019857;28;45414;-80
2022/08/28 02:29:49;;;;;;;;;5.00;5.00;;;;;20.42;47.57;101362.13;5020182;28;45494;-81
2022/08/28 02:32:14;;;;;;;;;5.00;4.00;;;;;20.41;47.74;101364.84;5019433;28;45600;-81
2022/08/28 02:34:42;;;;;;;;;5.00;5.00;;;;;20.42;47.74;101369.25;5019836;28;45550;-81
2022/08/28 02:37:10;;;;;;;;;7.25;6.00;;;;;20.38;48.23;101362.28;5019838;28;45261;-81
2022/08/28 02:39:38;;;;;;;;;4.00;4.00;;;;;20.35;47.87;101365.06;5020147;28;45312;-81
2022/08/28 02:42:03;;;;;;;;;5.00;3.25;;;;;20.28;47.96;101364.38;5020268;28;45415;-80
2022/08/28 02:44:29;;;;;;;;;4.00;4.00;;;;;20.28;48.01;101367.91;5018991;28;47169;-81
2022/08/28 02:46:54;;;;;;;;;6.50;5.25;;;;;20.22;48.02;101364.59;5018952;28;45375;-81
2022/08/28 02:49:21;;;;;;;;;5.50;5.50;;;;;20.22;48.34;101364.59;5019101;28;45707;-80
2022/08/28 02:51:47;;;;;;;;;4.00;4.00;;;;;20.20;48.30;101369.13;5019182;28;45256;-81
2022/08/28 02:54:12;;;;;;;;;5.00;3.75;;;;;20.16;48.89;101357.66;5018378;28;46908;-81
2022/08/28 02:56:38;;;;;;;;;2.50;2.50;;;;;20.10;48.50;101357.88;5018542;28;45305;-81
2022/08/28 02:59:03;;;;;;;;;5.00;5.00;;;;;20.13;48.91;101360.44;5020612;28;45203;-78
2022/08/28 03:01:29;;;;;;;;;7.00;6.25;;;;;20.12;48.91;101349.78;5021942;28;45873;-80
2022/08/28 03:03:54;;;;;;;;;6.25;6.25;;;;;20.10;49.26;101347.19;5022984;28;45516;-80
2022/08/28 03:06:21;;;;;;;;;6.00;5.50;;;;;20.10;49.03;101356.97;5016718;28;45174;-80
2022/08/28 03:08:47;;;;;;;;;16.25;14.25;;;;;20.06;48.78;101350.88;5003280;28;45418;-80
2022/08/28 03:11:13;;;;;;;;;11.50;9.75;;;;;20.07;49.13;101357.94;5002478;28;45486;-80
2022/08/28 03:13:40;;;;;;;;;8.00;8.00;;;;;20.05;49.06;101350.00;5004139;28;46559;-80
2022/08/28 03:16:06;;;;;;;;;7.00;7.00;;;;;19.98;48.88;101343.09;5003127;28;45411;-81
2022/08/28 03:18:32;;;;;;;;;8.50;8.00;;;;;20.01;49.25;101353.69;5002401;28;45373;-80
2022/08/28 03:20:57;;;;;;;;;10.00;9.75;;;;;19.99;49.19;101347.53;5002505;28;45600;-80
2022/08/28 03:23:26;;;;;;;;;8.00;8.00;;;;;19.97;49.41;101344.03;5002637;28;45266;-80
2022/08/28 03:25:55;;;;;;;;;6.00;6.00;;;;;19.91;49.39;101346.88;5002712;28;45270;-80
2022/08/28 03:28:21;;;;;;;;;7.50;6.25;;;;;19.94;49.86;101352.16;5001889;28;45469;-80
2022/08/28 03:30:46;;;;;;;;;8.25;8.25;;;;;19.91;49.88;101346.03;5002821;28;45574;-80
2022/08/28 03:33:13;;;;;;;;;6.00;6.00;;;;;19.89;49.96;101348.75;5002690;28;46132;-80
2022/08/28 03:35:39;;;;;;;;;6.75;5.50;;;;;19.85;50.07;101338.22;5002775;28;45290;-80
2022/08/28 03:38:04;;;;;;;;;5.75;5.75;;;;;19.85;50.21;101351.56;5001499;28;45392;-80
2022/08/28 03:40:31;;;;;;;;;6.00;6.00;;;;;19.82;49.88;101352.56;5001474;28;45244;-80
2022/08/28 03:42:56;;;;;;;;;5.00;5.00;;;;;19.82;50.33;101355.22;5001524;28;47623;-80
2022/08/28 03:45:24;;;;;;;;;9.50;6.75;;;;;19.75;50.26;101351.88;5001248;28;45288;-81
2022/08/28 03:47:50;;;;;;;;;6.25;6.00;;;;;19.73;50.02;101343.03;5014275;28;45439;-80
2022/08/28 03:50:16;;;;;;;;;9.00;6.75;;;;;19.76;50.09;101353.63;5022477;28;45486;-81
2022/08/28 03:52:42;;;;;;;;;7.00;7.00;;;;;19.73;50.15;101351.06;5021251;28;47148;-80
2022/08/28 03:55:10;;;;;;;;;8.25;6.75;;;;;19.72;50.02;101356.44;5020872;28;45497;-80
2022/08/28 03:57:36;;;;;;;;;5.25;5.25;;;;;19.73;50.13;101348.38;5021314;28;45415;-80
2022/08/28 04:00:04;;;;;;;;;7.75;5.50;;;;;19.69;50.51;101338.72;5021114;28;45605;-81
2022/08/28 04:02:29;;;;;;;;;8.25;6.50;;;;;19.75;50.49;101356.34;5021777;28;45680;-80
2022/08/28 04:04:55;;;;;;;;;7.25;7.00;;;;;19.70;50.94;101350.25;5021970;28;45447;-81
2022/08/28 04:07:21;;;;;;;;;5.00;5.00;;;;;19.69;50.74;101356.53;5022198;28;45374;-81
2022/08/28 04:09:46;;;;;;;;;7.75;6.50;;;;;19.63;51.22;101362.06;5000811;28;45586;-81
2022/08/28 04:12:13;;;;;;;;;8.75;7.00;;;;;19.53;51.18;101354.31;5000838;28;46996;-81
2022/08/28 04:14:39;;;;;;;;;5.50;5.50;;;;;19.51;51.25;101356.19;5001034;28;45456;-80
2022/08/28 04:17:06;;;;;;;;;7.25;6.25;;;;;19.42;51.22;101348.44;5000648;28;45296;-81
2022/08/28 04:19:32;;;;;;;;;5.00;5.00;;;;;19.36;51.34;101345.97;5001562;28;45472;-81
2022/08/28 04:21:57;;;;;;;;;8.50;8.50;;;;;19.33;51.36;101360.28;5001094;28;47332;-80
2022/08/28 04:24:23;;;;;;;;;5.00;5.00;;;;;19.28;51.87;101356.88;5001920;28;45320;-81
2022/08/28 04:26:48;;;;;;;;;7.00;5.50;;;;;19.26;51.78;101352.50;5000922;28;45300;-81
2022/08/28 04:29:14;;;;;;;;;7.00;7.00;;;;;19.23;52.07;101355.25;5002027;28;45403;-80
2022/08/28 04:31:40;;;;;;;;;8.25;7.00;;;;;19.16;52.15;101351.88;5002663;28;45944;-80
2022/08/28 04:34:07;;;;;;;;;8.25;7.00;;;;;19.17;52.44;101354.53;5002836;28;45450;-80
2022/08/28 04:36:34;;;;;;;;;8.00;7.00;;;;;19.17;52.33;101356.31;5001759;28;45213;-81
2022/08/28 04:39:00;;;;;;;;;5.75;5.50;;;;;19.18;52.60;101361.59;5002536;28;45264;-80
2022/08/28 04:41:27;;;;;;;;;11.25;8.75;;;;;19.18;52.60;101360.72;5000844;28;45646;-80
2022/08/28 04:43:54;;;;;;;;;9.75;8.50;;;;;19.16;52.62;101357.22;5002076;28;45494;-80
2022/08/28 04:46:20;;;;;;;;;6.00;6.00;;;;;19.16;52.25;101373.22;5001100;28;45364;-81
2022/08/28 04:48:45;;;;;;;;;8.00;6.50;;;;;19.13;52.71;101370.66;5019830;28;45516;-80
2022/08/28 04:51:13;;;;;;;;;9.00;8.00;;;;;19.11;52.67;101376.06;5021127;28;46255;-81
2022/08/28 04:53:41;;;;;;;;;7.00;7.00;;;;;19.10;52.76;101379.63;5020070;28;45614;-80
2022/08/28 04:56:10;;;;;;;;;8.75;8.25;;;;;19.09;52.85;101377.91;5016045;28;45220;-80
2022/08/28 04:58:37;;;;;;;;;8.25;7.25;;;;;19.08;53.20;101375.25;5021110;28;45486;-80
2022/08/28 05:01:19;;;;;;;;;6.75;6.75;;;;;19.10;53.17;101381.44;5020850;28;46182;-79
2022/08/28 05:03:46;;;;;;;;;8.25;8.00;;;;;19.06;53.11;101380.66;5020709;28;45485;-80
2022/08/28 05:06:15;;;;;;;;;7.75;7.75;;;;;19.09;53.30;101383.22;5021060;28;45447;-81
2022/08/28 05:08:41;;;;;;;;;9.75;9.50;;;;;19.05;53.00;101378.00;5019928;28;45268;-80
2022/08/28 05:11:13;;;;;;;;;7.25;7.25;;;;;19.09;53.50;101395.72;5020911;28;45385;-80
2022/08/28 05:13:38;;;;;;;;;9.00;8.00;;;;;19.05;53.32;101388.69;5021593;28;45221;-81
2022/08/28 05:16:04;;;;;;;;;6.00;6.00;;;;;19.02;53.25;101378.09;5019703;28;45450;-80
2022/08/28 05:18:29;;;;;;;;;7.25;6.50;;;;;19.05;53.23;101397.56;5020733;28;45290;-80
2022/08/28 05:20:55;;;;;;;;;9.75;7.00;;;;;19.04;53.17;101389.63;5020606;28;46325;-80
2022/08/28 05:23:20;;;;;;;;;6.25;6.00;;;;;19.03;53.72;101388.75;5019073;28;45312;-81
2022/08/28 05:25:47;;;;;;;;;7.50;7.50;;;;;19.04;53.53;101398.50;5020993;28;45998;-80
2022/08/28 05:28:15;;;;;;;;;10.50;9.50;;;;;19.06;53.52;101409.13;5019505;28;45367;-80
2022/08/28 05:30:42;;;;;;;;;6.75;6.75;;;;;19.07;53.73;101400.22;5020558;28;45494;-80
2022/08/28 05:33:09;;;;;;;;;7.50;7.50;;;;;19.06;53.71;101407.34;5020924;28;45173;-81
2022/08/28 05:35:37;;;;;;;;;8.75;7.25;;;;;19.03;53.56;101402.09;5019544;28;45436;-80
2022/08/28 05:38:04;;;;;;;;;9.25;7.50;;;;;19.09;53.46;101411.72;5022048;28;45408;-80
2022/08/28 05:40:29;;;;;;;;;12.25;11.25;;;;;19.05;53.49;101405.56;5021842;28;46932;-81
2022/08/28 05:42:55;;;;;;;;;8.25;8.25;;;;;19.05;53.74;101415.38;5020933;28;45323;-81
2022/08/28 05:45:21;;;;;;;;;10.50;8.50;;;;;19.05;53.92;101415.38;5021192;28;45409;-80
2022/08/28 05:47:46;;;;;;;;;6.75;6.75;;;;;19.04;53.86;101410.97;5019002;28;46294;-80
2022/08/28 05:50:15;;;;;;;;;8.50;7.25;;;;;19.10;54.11;101424.13;5019082;28;45444;-79
2022/08/28 05:52:41;;;;;;;;;11.50;10.25;;;;;19.11;54.47;101421.44;5019635;28;45296;-80
2022/08/28 05:55:08;;;;;;;;;7.25;7.25;;;;;19.07;54.05;101417.09;5019049;28;45467;-81
2022/08/28 05:57:34;;;;;;;;;8.00;8.00;;;;;19.10;54.14;101416.13;5019099;28;46044;-80
2022/08/28 06:00:00;;;;;;;;;9.00;8.00;;;;;19.05;54.13;101410.03;5000618;28;46398;-81
2022/08/28 06:02:26;;;;;;;;;8.00;7.00;;;;;19.06;54.47;101412.69;5000394;28;45380;-81
2022/08/28 06:04:52;;;;;;;;;9.00;8.50;;;;;19.10;54.23;101414.31;4999250;28;45521;-80
2022/08/28 06:07:18;;;;;;;;;7.00;7.00;;;;;19.10;54.66;101405.44;5000699;28;45272;-80
2022/08/28 06:09:44;;;;;;;;;9.50;8.00;;;;;19.15;54.78;101415.06;4998691;28;47062;-81
2022/08/28 06:12:10;;;;;;;;;6.00;5.00;;;;;19.17;54.74;101417.72;5000299;28;45333;-80
2022/08/28 06:14:35;;;;;;;;;6.25;6.00;;;;;19.12;54.81;101417.84;5000137;28;45304;-80
2022/08/28 06:17:02;;;;;;;;;8.50;8.50;;;;;19.15;54.27;101415.06;4999877;28;45370;-82
2022/08/28 06:19:30;;;;;;;;;7.50;7.50;;;;;19.12;54.75;101420.50;5000492;28;46323;-81
2022/08/28 06:21:59;;;;;;;;;6.00;6.00;;;;;19.18;54.58;101425.66;5000918;28;45327;-81
2022/08/28 06:24:25;;;;;;;;;8.50;7.00;;;;;19.20;54.67;101420.28;5005821;28;45274;-81
2022/08/28 06:26:51;;;;;;;;;10.00;8.75;;;;;19.23;54.80;101425.53;5019846;28;45211;-81
2022/08/28 06:29:18;;;;;;;;;7.25;6.00;;;;;19.27;54.75;101421.88;4999849;28;45299;-81
2022/08/28 06:31:44;;;;;;;;;8.00;8.00;;;;;19.29;54.47;101417.34;4999998;28;45365;-81
2022/08/28 06:34:10;;;;;;;;;7.00;7.00;;;;;19.30;54.82;101418.22;5002113;28;45433;-81
2022/08/28 06:36:40;;;;;;;;;8.00;8.00;;;;;19.37;54.62;101423.34;5001486;28;45464;-81
2022/08/28 06:39:06;;;;;;;;;8.00;7.00;;;;;19.38;54.71;101429.56;5001515;28;47163;-81
2022/08/28 06:41:32;;;;;;;;;8.00;7.75;;;;;19.44;54.85;101432.06;5002776;28;45229;-82
2022/08/28 06:43:58;;;;;;;;;7.00;6.25;;;;;19.51;55.07;101433.63;5001929;28;45403;-82
2022/08/28 06:46:29;;;;;;;;;6.00;6.00;;;;;19.57;54.75;101441.44;5004164;28;45517;-82
2022/08/28 06:48:54;;;;;;;;;6.00;6.00;;;;;19.60;54.71;101437.81;5021205;28;46219;-81
2022/08/28 06:51:20;;;;;;;;;6.00;6.00;;;;;19.64;54.75;101427.91;5022698;28;45240;-81
2022/08/28 06:53:45;;;;;;;;;9.00;7.75;;;;;19.66;54.65;101429.63;5021401;28;45525;-81
2022/08/28 06:56:14;;;;;;;;;6.00;6.00;;;;;19.67;54.23;101427.84;5022540;28;45239;-82
2022/08/28 06:58:42;;;;;;;;;6.50;6.25;;;;;19.76;54.58;101439.13;5012600;28;47558;-81
2022/08/28 07:01:17;;;;;;;;;7.50;6.75;;;;;19.79;54.53;101431.00;5002921;28;45241;-82
2022/08/28 07:03:44;;;;;;;;;7.75;6.25;;;;;19.91;54.42;101436.88;5001408;28;45442;-82
2022/08/28 07:06:12;;;;;;;;;7.00;7.00;;;;;19.93;53.78;101435.91;5001328;28;45280;-81
2022/08/28 07:08:39;;;;;;;;;6.00;5.00;;;;;19.99;54.02;101438.41;5002998;28;45519;-82
2022/08/28 07:11:09;;;;;;;;;8.25;6.00;;;;;19.98;53.79;101430.44;5002862;28;45423;-82
2022/08/28 07:13:35;;;;;;;;;8.25;7.00;;;;;20.07;53.87;101434.59;5001651;28;45253;-82
2022/08/28 07:16:01;;;;;;;;;10.00;7.00;;;;;20.07;53.84;101426.59;5001234;28;45602;-82
2022/08/28 07:18:27;;;;;;;;;6.75;4.25;;;;;20.10;53.99;101432.72;5002768;28;46595;-82
2022/08/28 07:20:59;;;;;;;;;6.75;6.75;;;;;20.13;53.99;101437.06;5002673;28;45407;-82
2022/08/28 07:23:29;;;;;;;;;8.50;8.00;;;;;20.14;53.96;101442.38;5001302;28;45278;-82
2022/08/28 07:25:55;;;;;;;;;8.75;5.25;;;;;20.16;53.81;101442.34;5001011;28;45371;-83
2022/08/28 07:28:21;;;;;;;;;7.00;6.25;;;;;20.17;53.86;101441.41;5001992;28;48407;-82
2022/08/28 07:30:56;;;;;;;;;8.00;8.00;;;;;20.21;53.99;101449.28;5002485;28;45783;-82
2022/08/28 07:33:22;;;;;;;;;11.00;8.00;;;;;20.25;53.51;101450.91;5003099;28;45493;-82
2022/08/28 07:35:49;;;;;;;;;7.33;6.67;;;;;20.28;53.48;101449.94;5002663;28;45390;-82
2022/08/28 07:38:15;;;;;;;;;8.75;7.75;;;;;20.30;53.67;101440.09;5001039;28;48003;-82
2022/08/28 07:40:41;;;;;;;;;7.67;6.67;;;;;20.37;53.77;101446.09;5002249;28;45429;-82
2022/08/28 07:45:58;;;;;;;;;9.00;9.00;;;;;20.50;53.06;101439.41;5001974;28;45224;-82
2022/08/28 07:48:24;;;;;;;;;7.33;7.33;;;;;20.58;53.12;101445.44;5018582;28;48026;-82
2022/08/28 07:50:52;;;;;;;;;7.50;7.00;;;;;20.63;53.07;101447.94;5022471;28;45304;-82
2022/08/28 07:53:17;;;;;;;;;8.25;8.25;;;;;20.70;52.97;101446.78;5020820;28;45423;-82
2022/08/28 07:55:42;;;;;;;;;12.50;12.50;;;;;20.75;53.02;101443.97;5020531;28;45475;-82
2022/08/28 07:58:08;;;;;;;;;8.50;8.50;;;;;20.79;52.80;101450.94;5021910;28;45391;-82
2022/08/28 08:00:33;;;;;;;;;8.75;7.50;;;;;20.87;52.54;101456.91;5022811;28;45324;-82
2022/08/28 08:02:59;;;;;;;;;8.50;8.00;;;;;20.88;52.63;101448.84;5020549;28;45434;-82
2022/08/28 08:05:24;;;;;;;;;15.00;15.00;;;;;20.91;52.33;101453.22;5020773;28;45335;-82
2022/08/28 08:07:51;;;;;;;;;9.00;7.00;;;;;20.97;52.67;101457.47;5020569;28;47484;-82
2022/08/28 08:10:17;;;;;;;;;6.00;6.00;;;;;21.08;52.18;101453.47;5022308;28;45401;-82
2022/08/28 08:12:43;;;;;;;;;5.75;5.75;;;;;21.19;51.88;101455.75;5021939;28;45245;-82
2022/08/28 08:15:10;;;;;;;;;7.25;5.25;;;;;21.32;51.82;101458.84;5020780;28;45561;-82
2022/08/28 08:17:36;;;;;;;;;7.75;7.75;;;;;21.42;51.60;101454.94;5019940;28;47087;-82
2022/08/28 08:20:01;;;;;;;;;6.75;6.00;;;;;21.50;51.68;101455.53;5020378;28;45283;-82
2022/08/28 08:22:29;;;;;;;;;8.75;8.00;;;;;21.58;50.94;101450.75;5021828;28;45471;-82
2022/08/28 08:24:54;;;;;;;;;6.75;5.50;;;;;21.68;51.06;101462.00;5020248;28;45288;-82
2022/08/28 08:27:20;;;;;;;;;7.50;6.50;;;;;21.73;50.90;101472.50;5019941;28;48056;-81
2022/08/28 08:29:47;;;;;;;;;8.00;7.00;;;;;21.75;50.88;101460.81;5020744;28;45408;-81
2022/08/28 08:32:14;;;;;;;;;6.75;6.75;;;;;21.79;50.43;101465.13;5020437;28;45311;-82
2022/08/28 08:34:48;;;;;;;;;8.75;8.00;;;;;21.80;50.53;101464.19;5020951;28;45348;-81
2022/08/28 08:37:14;;;;;;;;;5.75;5.75;;;;;21.84;50.59;101456.91;5020435;28;47535;-82
2022/08/28 08:39:41;;;;;;;;;8.00;7.50;;;;;21.92;50.55;101456.59;5009166;28;45254;-81
2022/08/28 08:42:18;;;;;;;;;8.50;8.50;;;;;22.04;50.29;101466.84;5000992;28;45401;-81
2022/08/28 08:44:47;;;;;;;;;11.00;8.75;;;;;22.08;50.38;101463.09;5000767;28;45521;-82
2022/08/28 08:47:56;;;;;;;;;9.00;8.00;;;;;22.10;49.93;101454.97;5008254;28;48159;-82
2022/08/28 08:50:30;;;;;;;;;12.00;8.00;;;;;22.06;49.81;101454.25;5003526;28;45413;-82
2022/08/28 08:53:30;;;;;;;;;7.75;7.75;;;;;22.09;50.06;101464.84;5015384;28;45300;-82
2022/08/28 08:55:57;;;;;;;;;7.00;6.50;;;;;22.14;49.95;101465.53;5025650;28;45399;-81
2022/08/28 08:58:41;;;;;;;;;7.00;6.75;;;;;22.21;49.55;101464.41;5021991;28;45223;-81
2022/08/28 09:01:36;;;;;;;;;8.50;8.00;;;;;22.23;49.57;101454.44;5021833;28;45418;-82
2022/08/28 09:04:21;;;;;;;;;7.25;7.00;;;;;22.33;49.44;101451.41;5010538;28;45438;-82
2022/08/28 09:07:02;;;;;;;;;8.50;7.75;;;;;22.43;49.76;101471.56;5020054;28;45479;-82
2022/08/28 09:09:41;;;;;;;;;7.00;7.00;;;;;22.48;49.21;101456.13;5019598;28;47727;-82
2022/08/28 09:12:17;;;;;;;;;8.75;6.75;;;;;22.60;49.26;101460.09;5021781;28;45422;-82
2022/08/28 09:15:08;;;;;;;;;9.25;8.75;;;;;22.73;49.01;101463.16;5022467;28;45320;-81
2022/08/28 09:17:37;;;;;;;;;8.00;8.00;;;;;22.83;48.70;101448.38;5020315;28;45492;-81
2022/08/28 09:20:08;;;;;;;;;7.00;7.00;;;;;22.90;48.29;101445.34;5022402;28;45524;-82
2022/08/28 09:22:34;;;;;;;;;9.75;9.50;;;;;23.03;48.11;101442.16;5022211;28;45574;-82
2022/08/28 09:25:00;;;;;;;;;11.00;9.75;;;;;23.10;47.79;101446.31;5020913;28;45428;-81
2022/08/28 09:27:45;;;;;;;;;11.50;10.00;;;;;23.20;47.66;101444.06;5020568;28;45431;-83
2022/08/28 09:30:28;;;;;;;;;11.25;10.75;;;;;23.29;47.75;101452.59;5021874;28;45381;-82
2022/08/28 09:32:59;;;;;;;;;8.50;6.00;;;;;23.40;47.33;101446.72;5021738;28;45372;-81
2022/08/28 09:35:33;;;;;;;;;10.00;8.50;;;;;23.53;46.94;101447.03;5020675;28;45196;-83
2022/08/28 09:38:19;;;;;;;;;8.00;7.00;;;;;23.66;46.94;101444.66;5021768;28;45375;-82
2022/08/28 09:43:30;;;;;;;;;8.00;8.00;;;;;23.84;46.56;101438.41;5020756;28;45273;-82
2022/08/28 09:46:01;;;;;;;;;10.50;9.00;;;;;23.91;46.33;101442.56;5019695;28;45415;-82
2022/08/28 09:48:45;;;;;;;;;11.25;10.00;;;;;23.95;46.11;101440.56;5019414;28;45418;-82
2022/08/28 09:51:27;;;;;;;;;10.00;9.25;;;;;24.03;46.04;101440.22;5019404;28;47846;-81
2022/08/28 09:54:01;;;;;;;;;11.25;11.25;;;;;24.15;45.60;101436.94;5020503;28;45468;-82
2022/08/28 09:56:31;;;;;;;;;11.25;11.00;;;;;24.18;45.70;101436.78;5019529;28;45340;-82
2022/08/28 09:59:08;;;;;;;;;13.25;11.25;;;;;24.22;45.26;101433.00;5009684;28;45584;-82
2022/08/28 10:01:49;;;;;;;;;11.75;10.25;;;;;24.23;45.40;101431.16;5000362;28;48081;-82
2022/08/28 10:04:36;;;;;;;;;10.00;9.75;;;;;24.32;45.41;101436.06;5001781;28;45316;-82
2022/08/28 10:07:09;;;;;;;;;10.25;9.00;;;;;24.42;45.20;101429.28;5002398;28;45367;-82
2022/08/28 10:10:05;;;;;;;;;14.25;14.00;;;;;24.53;45.11;101423.38;5000392;28;45460;-82
2022/08/28 10:12:53;;;;;;;;;11.75;11.00;;;;;24.58;44.52;101426.72;5000907;28;46202;-82
2022/08/28 10:15:28;;;;;;;;;12.50;10.00;;;;;24.62;44.30;101422.94;5000159;28;45272;-82
2022/08/28 10:18:35;;;;;;;;;9.00;9.00;;;;;24.73;44.68;101417.84;5007098;28;45584;-82
2022/08/28 10:21:08;;;;;;;;;9.25;8.25;;;;;24.82;44.50;101417.34;5019893;28;45388;-82
2022/08/28 10:23:45;;;;;;;;;11.50;11.00;;;;;24.87;43.77;101431.44;5021690;28;45311;-82
2022/08/28 10:26:26;;;;;;;;;12.50;12.25;;;;;24.92;43.65;101423.13;5018646;28;46218;-83
2022/08/28 10:29:01;;;;;;;;;13.00;10.25;;;;;25.03;43.66;101428.81;5020515;28;45493;-83
2022/08/28 10:31:50;;;;;;;;;12.00;11.25;;;;;25.17;43.90;101424.53;5020585;28;45427;-82
2022/08/28 10:34:24;;;;;;;;;10.75;10.00;;;;;25.32;42.89;101421.03;5007206;28;46611;-83
2022/08/28 10:37:10;;;;;;;;;13.00;11.50;;;;;25.41;42.98;101414.25;5018337;28;45314;-83
2022/08/28 10:39:52;;;;;;;;;12.50;10.00;;;;;25.50;42.67;101414.63;5020104;28;45494;-82
2022/08/28 10:42:36;;;;;;;;;10.75;10.75;;;;;25.64;42.66;101423.78;5018390;28;45884;-83
2022/08/28 10:45:11;;;;;;;;;10.25;9.75;;;;;25.71;41.92;101411.66;5019631;28;45523;-83
2022/08/28 10:47:40;;;;;;;;;8.25;7.25;;;;;25.83;41.67;101410.97;5019081;28;45493;-83
2022/08/28 10:50:24;;;;;;;;;12.00;8.25;;;;;26.00;41.81;101410.03;5019412;28;45280;-82
2022/08/28 10:52:57;;;;;;;;;13.00;11.75;;;;;26.13;41.29;101416.44;5019411;28;45240;-80
2022/08/28 10:55:31;;;;;;;;;10.75;9.75;;;;;26.29;41.27;101411.03;5017848;28;46930;-80
2022/08/28 10:58:02;;;;;;;;;9.25;8.00;;;;;26.53;41.00;101413.25;5019143;28;45360;-83
2022/08/28 11:00:28;;;;;;;;;12.75;9.50;;;;;26.67;40.51;101417.84;5018066;28;45304;-83
2022/08/28 11:03:03;;;;;;;;;12.25;10.75;;;;;26.79;40.09;101417.97;5017729;28;45518;-83
2022/08/28 11:05:40;;;;;;;;;8.25;7.75;;;;;26.94;39.85;101415.28;5017878;28;47010;-82
2022/08/28 11:08:10;;;;;;;;;8.00;7.50;;;;;27.10;39.73;101404.38;5017817;28;45697;-83
2022/08/28 11:10:48;;;;;;;;;10.75;10.75;;;;;27.25;39.07;101407.00;5019457;28;45296;-83
2022/08/28 11:13:43;;;;;;;;;8.50;7.50;;;;;27.43;38.90;101406.81;5009854;28;45629;-83
2022/08/28 11:16:17;;;;;;;;;6.50;6.50;;;;;27.72;38.92;101413.06;4997907;28;47236;-81
2022/08/28 11:19:02;;;;;;;;;8.25;8.25;;;;;27.99;38.07;101410.41;4997850;28;45362;-83
2022/08/28 11:21:35;;;;;;;;;15.25;11.00;;;;;27.99;37.91;101406.81;4980500;28;45446;-83
2022/08/28 11:24:22;;;;;;;;;6.75;6.75;;;;;27.93;37.43;101403.56;5001297;28;45665;-83
2022/08/28 11:27:22;;;;;;;;;9.00;9.00;;;;;27.79;37.02;101400.84;5001193;28;47146;-83
2022/08/28 11:30:00;;;;;;;;;7.75;7.00;;;;;27.74;37.71;101405.69;5012496;28;45253;-83
2022/08/28 11:32:34;;;;;;;;;8.00;7.50;;;;;27.86;37.33;101399.50;5002636;28;45280;-82
2022/08/28 11:35:04;;;;;;;;;13.00;11.25;;;;;28.10;37.24;101404.28;5001216;28;45696;-83
2022/08/28 11:37:40;;;;;;;;;13.75;12.75;;;;;28.29;36.34;101406.59;5002420;28;45379;-83
2022/08/28 11:40:29;;;;;;;;;12.25;12.00;;;;;28.42;36.26;101404.81;5001024;28;45354;-82